PWSweather.com
Personal Weather Stations
Station Observations
SUBOTICARS
SuboticaYU

SuboticaYU

Lat: 46.1296717, Lon: 19.641551

Elevation: 361

Station Type: Nexus

http://sumeteo.info

High Low Average
Temperature 75.6°F24.2°C 40.5°F4.7°C 55.7°F13.2°C
Dew Point 47.0°F8.3°C 32.8°F0.4°C 37.8°F3.2°C
Winds 9.2 mph 14.8 kmh Calm Calm 3.0 mph E4.8 kmh E
Wind Gusts 13.8 mph22.2 kmh -- 3.0 mph4.8 kmh
Humidity 79% 28% 54%
Pressure 29.85 in1010.8 mb 29.76 in1007.8 mb -
Precipitation 0.00 in0.0 mm - -
Hour Temp Dew Point Humidity Winds Wind Gusts Pressure Precip Precip Rate Daily Precip Total
12:00 AM 44.6°F7.0°C 34.3°F1.3°C 67% Calm Calm -- 29.84 in1010.5 mb - 0.00 in0.0 mm 0.00 in0.0 mm
12:10 AM 44.6°F7.0°C 33.9°F1.1°C 66% Calm Calm -- 29.84 in1010.5 mb - 0.00 in0.0 mm 0.00 in0.0 mm
12:15 AM 44.6°F7.0°C 34.3°F1.3°C 67% Calm Calm -- 29.84 in1010.5 mb - 0.00 in0.0 mm 0.00 in0.0 mm
12:20 AM 44.6°F7.0°C 34.3°F1.3°C 67% Calm Calm -- 29.84 in1010.5 mb - 0.00 in0.0 mm 0.00 in0.0 mm
12:25 AM 44.8°F7.1°C 35.2°F1.8°C 69% Calm Calm -- 29.84 in1010.5 mb - 0.00 in0.0 mm 0.00 in0.0 mm
12:30 AM 44.6°F7.0°C 35.1°F1.7°C 69% Calm Calm -- 29.84 in1010.5 mb - 0.00 in0.0 mm 0.00 in0.0 mm
12:35 AM 44.6°F7.0°C 34.7°F1.5°C 68% Calm Calm -- 29.84 in1010.5 mb - 0.00 in0.0 mm 0.00 in0.0 mm
12:40 AM 44.6°F7.0°C 34.3°F1.3°C 67% Calm Calm -- 29.84 in1010.5 mb - 0.00 in0.0 mm 0.00 in0.0 mm
12:45 AM 44.4°F6.9°C 34.5°F1.4°C 68% Calm Calm -- 29.84 in1010.5 mb - 0.00 in0.0 mm 0.00 in0.0 mm
12:50 AM 44.2°F6.8°C 34.3°F1.3°C 68% Calm Calm -- 29.84 in1010.5 mb - 0.00 in0.0 mm 0.00 in0.0 mm
12:55 AM 44.1°F6.7°C 33.8°F1.0°C 67% Calm Calm -- 29.84 in1010.5 mb - 0.00 in0.0 mm 0.00 in0.0 mm
01:00 AM 43.9°F6.6°C 34.0°F1.1°C 68% Calm Calm -- 29.83 in1010.2 mb - 0.00 in0.0 mm 0.00 in0.0 mm
01:10 AM 43.7°F6.5°C 33.8°F1.0°C 68% Calm Calm -- 29.83 in1010.2 mb - 0.00 in0.0 mm 0.00 in0.0 mm
01:15 AM 43.5°F6.4°C 33.7°F0.9°C 68% Calm Calm -- 29.83 in1010.2 mb - 0.00 in0.0 mm 0.00 in0.0 mm
01:20 AM 43.5°F6.4°C 33.7°F0.9°C 68% Calm Calm -- 29.83 in1010.2 mb - 0.00 in0.0 mm 0.00 in0.0 mm
01:25 AM 43.5°F6.4°C 34.0°F1.1°C 69% Calm Calm -- 29.83 in1010.2 mb - 0.00 in0.0 mm 0.00 in0.0 mm
01:30 AM 43.5°F6.4°C 34.4°F1.3°C 70% Calm Calm -- 29.83 in1010.2 mb - 0.00 in0.0 mm 0.00 in0.0 mm
01:35 AM 43.5°F6.4°C 34.4°F1.3°C 70% Calm Calm -- 29.83 in1010.2 mb - 0.00 in0.0 mm 0.00 in0.0 mm
01:40 AM 43.5°F6.4°C 34.7°F1.5°C 71% Calm Calm -- 29.83 in1010.2 mb - 0.00 in0.0 mm 0.00 in0.0 mm
01:45 AM 43.3°F6.3°C 34.6°F1.4°C 71% Calm Calm -- 29.83 in1010.2 mb - 0.00 in0.0 mm 0.00 in0.0 mm
01:50 AM 43.2°F6.2°C 34.4°F1.3°C 71% Calm Calm -- 29.83 in1010.2 mb - 0.00 in0.0 mm 0.00 in0.0 mm
01:55 AM 43.2°F6.2°C 34.7°F1.5°C 72% Calm Calm -- 29.83 in1010.2 mb - 0.00 in0.0 mm 0.00 in0.0 mm
02:00 AM 43.0°F6.1°C 34.3°F1.3°C 71% Calm Calm -- 29.83 in1010.2 mb - 0.00 in0.0 mm 0.00 in0.0 mm
02:10 AM 42.8°F6.0°C 33.7°F0.9°C 70% Calm Calm -- 29.83 in1010.2 mb - 0.00 in0.0 mm 0.00 in0.0 mm
02:15 AM 42.4°F5.8°C 33.3°F0.7°C 70% Calm Calm -- 29.83 in1010.2 mb - 0.00 in0.0 mm 0.00 in0.0 mm
02:20 AM 42.4°F5.8°C 33.3°F0.7°C 70% Calm Calm -- 29.83 in1010.2 mb - 0.00 in0.0 mm 0.00 in0.0 mm
02:25 AM 42.3°F5.7°C 33.2°F0.7°C 70% Calm Calm -- 29.83 in1010.2 mb - 0.00 in0.0 mm 0.00 in0.0 mm
02:30 AM 42.3°F5.7°C 33.5°F0.8°C 71% 1.2 mph ENE1.9 kmh ENE 1.2 mph1.9 kmh 29.83 in1010.2 mb - 0.00 in0.0 mm 0.00 in0.0 mm
02:35 AM 42.5°F5.8°C 33.8°F1.0°C 71% 1.2 mph ESE1.9 kmh ESE 1.2 mph1.9 kmh 29.83 in1010.2 mb - 0.00 in0.0 mm 0.00 in0.0 mm
02:40 AM 42.6°F5.9°C 33.5°F0.8°C 70% Calm Calm -- 29.83 in1010.2 mb - 0.00 in0.0 mm 0.00 in0.0 mm
02:45 AM 42.8°F6.0°C 34.0°F1.1°C 71% 1.2 mph ENE1.9 kmh ENE 2.3 mph3.7 kmh 29.83 in1010.2 mb - 0.00 in0.0 mm 0.00 in0.0 mm
02:50 AM 42.6°F5.9°C 33.9°F1.1°C 71% Calm Calm 1.2 mph1.9 kmh 29.83 in1010.2 mb - 0.00 in0.0 mm 0.00 in0.0 mm
02:55 AM 42.5°F5.8°C 33.7°F0.9°C 71% Calm Calm -- 29.83 in1010.2 mb - 0.00 in0.0 mm 0.00 in0.0 mm
03:00 AM 42.6°F5.9°C 33.9°F1.1°C 71% 1.2 mph E1.9 kmh E 1.2 mph1.9 kmh 29.82 in1009.8 mb - 0.00 in0.0 mm 0.00 in0.0 mm
03:10 AM 42.6°F5.9°C 33.9°F1.1°C 71% Calm Calm -- 29.82 in1009.8 mb - 0.00 in0.0 mm 0.00 in0.0 mm
03:15 AM 42.8°F6.0°C 34.0°F1.1°C 71% Calm Calm -- 29.82 in1009.8 mb - 0.00 in0.0 mm 0.00 in0.0 mm
03:20 AM 42.8°F6.0°C 34.0°F1.1°C 71% Calm Calm -- 29.82 in1009.8 mb - 0.00 in0.0 mm 0.00 in0.0 mm
03:25 AM 42.8°F6.0°C 34.0°F1.1°C 71% Calm Calm -- 29.82 in1009.8 mb - 0.00 in0.0 mm 0.00 in0.0 mm
03:30 AM 42.8°F6.0°C 34.0°F1.1°C 71% Calm Calm -- 29.83 in1010.2 mb - 0.00 in0.0 mm 0.00 in0.0 mm
03:35 AM 42.8°F6.0°C 34.0°F1.1°C 71% Calm Calm -- 29.83 in1010.2 mb - 0.00 in0.0 mm 0.00 in0.0 mm
03:40 AM 42.8°F6.0°C 34.0°F1.1°C 71% Calm Calm -- 29.83 in1010.2 mb - 0.00 in0.0 mm 0.00 in0.0 mm
03:45 AM 42.8°F6.0°C 34.0°F1.1°C 71% Calm Calm -- 29.82 in1009.8 mb - 0.00 in0.0 mm 0.00 in0.0 mm
03:50 AM 42.8°F6.0°C 34.0°F1.1°C 71% Calm Calm -- 29.82 in1009.8 mb - 0.00 in0.0 mm 0.00 in0.0 mm
03:55 AM 42.8°F6.0°C 34.0°F1.1°C 71% Calm Calm -- 29.82 in1009.8 mb - 0.00 in0.0 mm 0.00 in0.0 mm
04:00 AM 42.7°F5.9°C 33.9°F1.1°C 71% Calm Calm -- 29.83 in1010.2 mb - 0.00 in0.0 mm 0.00 in0.0 mm
04:10 AM 42.8°F6.0°C 34.0°F1.1°C 71% Calm Calm -- 29.83 in1010.2 mb - 0.00 in0.0 mm 0.00 in0.0 mm
04:15 AM 42.8°F6.0°C 34.0°F1.1°C 71% Calm Calm 1.2 mph1.9 kmh 29.82 in1009.8 mb - 0.00 in0.0 mm 0.00 in0.0 mm
04:20 AM 42.8°F6.0°C 34.0°F1.1°C 71% Calm Calm -- 29.82 in1009.8 mb - 0.00 in0.0 mm 0.00 in0.0 mm
04:25 AM 43.0°F6.1°C 36.6°F2.6°C 78% Calm Calm -- 29.82 in1009.8 mb - 0.00 in0.0 mm 0.00 in0.0 mm
04:30 AM 42.8°F6.0°C 36.4°F2.4°C 78% Calm Calm -- 29.82 in1009.8 mb - 0.00 in0.0 mm 0.00 in0.0 mm
04:35 AM 42.6°F5.9°C 36.2°F2.3°C 78% Calm Calm -- 29.82 in1009.8 mb - 0.00 in0.0 mm 0.00 in0.0 mm
04:40 AM 42.4°F5.8°C 35.1°F1.7°C 75% Calm Calm -- 29.82 in1009.8 mb - 0.00 in0.0 mm 0.00 in0.0 mm
04:45 AM 42.1°F5.6°C 34.0°F1.1°C 73% Calm Calm -- 29.83 in1010.2 mb - 0.00 in0.0 mm 0.00 in0.0 mm
04:50 AM 41.7°F5.4°C 33.4°F0.8°C 72% Calm Calm 1.2 mph1.9 kmh 29.83 in1010.2 mb - 0.00 in0.0 mm 0.00 in0.0 mm
04:55 AM 41.5°F5.3°C 33.5°F0.8°C 73% Calm Calm -- 29.83 in1010.2 mb - 0.00 in0.0 mm 0.00 in0.0 mm
05:00 AM 41.4°F5.2°C 33.1°F0.6°C 72% Calm Calm -- 29.82 in1009.8 mb - 0.00 in0.0 mm 0.00 in0.0 mm
05:10 AM 41.2°F5.1°C 32.8°F0.4°C 72% Calm Calm -- 29.82 in1009.8 mb - 0.00 in0.0 mm 0.00 in0.0 mm
05:15 AM 41.4°F5.2°C 33.0°F0.6°C 72% Calm Calm -- 29.83 in1010.2 mb - 0.00 in0.0 mm 0.00 in0.0 mm
05:20 AM 41.4°F5.2°C 33.4°F0.8°C 73% Calm Calm -- 29.83 in1010.2 mb - 0.00 in0.0 mm 0.00 in0.0 mm
05:25 AM 41.4°F5.2°C 33.4°F0.8°C 73% Calm Calm 1.2 mph1.9 kmh 29.83 in1010.2 mb - 0.00 in0.0 mm 0.00 in0.0 mm
05:30 AM 41.4°F5.2°C 33.7°F0.9°C 74% 1.2 mph ENE1.9 kmh ENE 2.3 mph3.7 kmh 29.83 in1010.2 mb - 0.00 in0.0 mm 0.00 in0.0 mm
05:35 AM 41.4°F5.2°C 34.0°F1.1°C 75% 1.2 mph ENE1.9 kmh ENE 1.2 mph1.9 kmh 29.83 in1010.2 mb - 0.00 in0.0 mm 0.00 in0.0 mm
05:40 AM 41.4°F5.2°C 34.4°F1.3°C 76% Calm Calm 1.2 mph1.9 kmh 29.83 in1010.2 mb - 0.00 in0.0 mm 0.00 in0.0 mm
05:45 AM 41.4°F5.2°C 35.3°F1.8°C 79% 1.2 mph NE1.9 kmh NE 1.2 mph1.9 kmh 29.83 in1010.2 mb - 0.00 in0.0 mm 0.00 in0.0 mm
05:50 AM 41.5°F5.3°C 35.5°F1.9°C 79% 2.3 mph NNE3.7 kmh NNE 2.3 mph3.7 kmh 29.83 in1010.2 mb - 0.00 in0.0 mm 0.00 in0.0 mm
05:55 AM 41.2°F5.1°C 33.9°F1.1°C 75% 1.2 mph NE1.9 kmh NE 3.5 mph5.6 kmh 29.83 in1010.2 mb - 0.00 in0.0 mm 0.00 in0.0 mm
06:00 AM 41.0°F5.0°C 33.3°F0.7°C 74% 2.3 mph NE3.7 kmh NE 2.3 mph3.7 kmh 29.83 in1010.2 mb - 0.00 in0.0 mm 0.00 in0.0 mm
06:10 AM 40.6°F4.8°C 33.0°F0.6°C 74% 1.2 mph NNE1.9 kmh NNE 1.2 mph1.9 kmh 29.83 in1010.2 mb - 0.00 in0.0 mm 0.00 in0.0 mm
06:15 AM 40.5°F4.7°C 32.8°F0.4°C 74% 1.2 mph NNE1.9 kmh NNE 2.3 mph3.7 kmh 29.84 in1010.5 mb - 0.00 in0.0 mm 0.00 in0.0 mm
06:20 AM 40.5°F4.7°C 32.8°F0.4°C 74% 1.2 mph NNE1.9 kmh NNE 1.2 mph1.9 kmh 29.84 in1010.5 mb - 0.00 in0.0 mm 0.00 in0.0 mm
06:25 AM 40.5°F4.7°C 33.2°F0.7°C 75% 1.2 mph NNE1.9 kmh NNE 2.3 mph3.7 kmh 29.84 in1010.5 mb - 0.00 in0.0 mm 0.00 in0.0 mm
06:30 AM 40.5°F4.7°C 33.2°F0.7°C 75% 1.2 mph NE1.9 kmh NE 2.3 mph3.7 kmh 29.83 in1010.2 mb - 0.00 in0.0 mm 0.00 in0.0 mm
06:35 AM 41.0°F5.0°C 33.7°F0.9°C 75% 1.2 mph NE1.9 kmh NE 1.2 mph1.9 kmh 29.83 in1010.2 mb - 0.00 in0.0 mm 0.00 in0.0 mm
06:40 AM 41.0°F5.0°C 33.7°F0.9°C 75% 1.2 mph NE1.9 kmh NE 2.3 mph3.7 kmh 29.83 in1010.2 mb - 0.00 in0.0 mm 0.00 in0.0 mm
06:45 AM 41.0°F5.0°C 33.7°F0.9°C 75% Calm Calm -- 29.84 in1010.5 mb - 0.00 in0.0 mm 0.00 in0.0 mm
06:50 AM 41.4°F5.2°C 34.0°F1.1°C 75% Calm Calm -- 29.84 in1010.5 mb - 0.00 in0.0 mm 0.00 in0.0 mm
06:55 AM 41.5°F5.3°C 33.9°F1.1°C 74% Calm Calm 1.2 mph1.9 kmh 29.84 in1010.5 mb - 0.00 in0.0 mm 0.00 in0.0 mm
07:00 AM 42.0°F5.6°C 34.3°F1.3°C 74% 1.2 mph NE1.9 kmh NE 1.2 mph1.9 kmh 29.84 in1010.5 mb - 0.00 in0.0 mm 0.00 in0.0 mm
07:10 AM 44.4°F6.9°C 36.6°F2.6°C 74% 1.2 mph ENE1.9 kmh ENE 2.3 mph3.7 kmh 29.84 in1010.5 mb - 0.00 in0.0 mm 0.00 in0.0 mm
07:15 AM 46.0°F7.8°C 37.5°F3.1°C 72% 1.2 mph ESE1.9 kmh ESE 2.3 mph3.7 kmh 29.84 in1010.5 mb - 0.00 in0.0 mm 0.00 in0.0 mm
07:20 AM 47.5°F8.6°C 38.5°F3.6°C 71% 2.3 mph ENE3.7 kmh ENE 2.3 mph3.7 kmh 29.84 in1010.5 mb - 0.00 in0.0 mm 0.00 in0.0 mm
07:25 AM 48.8°F9.3°C 39.1°F3.9°C 69% 2.3 mph E3.7 kmh E 2.3 mph3.7 kmh 29.84 in1010.5 mb - 0.00 in0.0 mm 0.00 in0.0 mm
07:30 AM 50.0°F10.0°C 39.8°F4.3°C 68% 1.2 mph ENE1.9 kmh ENE 2.3 mph3.7 kmh 29.84 in1010.5 mb - 0.00 in0.0 mm 0.00 in0.0 mm
07:35 AM 50.7°F10.4°C 40.2°F4.6°C 67% 1.2 mph E1.9 kmh E 2.3 mph3.7 kmh 29.84 in1010.5 mb - 0.00 in0.0 mm 0.00 in0.0 mm
07:40 AM 52.0°F11.1°C 41.0°F5.0°C 66% 2.3 mph ESE3.7 kmh ESE 2.3 mph3.7 kmh 29.84 in1010.5 mb - 0.00 in0.0 mm 0.00 in0.0 mm
07:45 AM 52.7°F11.5°C 41.3°F5.2°C 65% 3.5 mph SE5.6 kmh SE 3.5 mph5.6 kmh 29.84 in1010.5 mb - 0.00 in0.0 mm 0.00 in0.0 mm
07:50 AM 53.6°F12.0°C 41.7°F5.4°C 64% 2.3 mph ESE3.7 kmh ESE 2.3 mph3.7 kmh 29.84 in1010.5 mb - 0.00 in0.0 mm 0.00 in0.0 mm
07:55 AM 54.1°F12.3°C 41.8°F5.4°C 63% 3.5 mph E5.6 kmh E 3.5 mph5.6 kmh 29.84 in1010.5 mb - 0.00 in0.0 mm 0.00 in0.0 mm
08:00 AM 54.5°F12.5°C 42.2°F5.7°C 63% 3.5 mph E5.6 kmh E 3.5 mph5.6 kmh 29.84 in1010.5 mb - 0.00 in0.0 mm 0.00 in0.0 mm
08:10 AM 56.1°F13.4°C 43.3°F6.3°C 62% 3.5 mph SSE5.6 kmh SSE 6.9 mph11.1 kmh 29.84 in1010.5 mb - 0.00 in0.0 mm 0.00 in0.0 mm
08:15 AM 57.0°F13.9°C 43.7°F6.5°C 61% 3.5 mph SE5.6 kmh SE 4.6 mph7.4 kmh 29.84 in1010.5 mb - 0.00 in0.0 mm 0.00 in0.0 mm
08:20 AM 57.7°F14.3°C 43.9°F6.6°C 60% 3.5 mph ESE5.6 kmh ESE 3.5 mph5.6 kmh 29.84 in1010.5 mb - 0.00 in0.0 mm 0.00 in0.0 mm
08:25 AM 58.7°F14.8°C 43.9°F6.6°C 58% 3.5 mph E5.6 kmh E 4.6 mph7.4 kmh 29.84 in1010.5 mb - 0.00 in0.0 mm 0.00 in0.0 mm
08:30 AM 59.4°F15.2°C 44.2°F6.8°C 57% 4.6 mph NW7.4 kmh NW 8.1 mph13.0 kmh 29.85 in1010.8 mb - 0.00 in0.0 mm 0.00 in0.0 mm
08:35 AM 60.1°F15.6°C 44.3°F6.8°C 56% 5.8 mph SE9.3 kmh SE 8.1 mph13.0 kmh 29.85 in1010.8 mb - 0.00 in0.0 mm 0.00 in0.0 mm
08:40 AM 60.8°F16.0°C 44.5°F6.9°C 55% 5.8 mph ESE9.3 kmh ESE 5.8 mph9.3 kmh 29.85 in1010.8 mb - 0.00 in0.0 mm 0.00 in0.0 mm
08:45 AM 61.5°F16.4°C 45.2°F7.3°C 55% 5.8 mph SSE9.3 kmh SSE 5.8 mph9.3 kmh 29.84 in1010.5 mb - 0.00 in0.0 mm 0.00 in0.0 mm
08:50 AM 61.9°F16.6°C 45.0°F7.2°C 54% 8.1 mph SSE13.0 kmh SSE 12.7 mph20.4 kmh 29.84 in1010.5 mb - 0.00 in0.0 mm 0.00 in0.0 mm
08:55 AM 62.0°F16.7°C 45.1°F7.3°C 54% 4.6 mph SE7.4 kmh SE 8.1 mph13.0 kmh 29.84 in1010.5 mb - 0.00 in0.0 mm 0.00 in0.0 mm
09:00 AM 62.2°F16.8°C 44.9°F7.2°C 53% 4.6 mph SE7.4 kmh SE 6.9 mph11.1 kmh 29.84 in1010.5 mb - 0.00 in0.0 mm 0.00 in0.0 mm
09:10 AM 62.8°F17.1°C 44.9°F7.2°C 52% 5.8 mph E9.3 kmh E 6.9 mph11.1 kmh 29.84 in1010.5 mb - 0.00 in0.0 mm 0.00 in0.0 mm
09:15 AM 63.0°F17.2°C 44.5°F6.9°C 51% 5.8 mph S9.3 kmh S 8.1 mph13.0 kmh 29.85 in1010.8 mb - 0.00 in0.0 mm 0.00 in0.0 mm
09:20 AM 63.5°F17.5°C 45.0°F7.2°C 51% 3.5 mph ESE5.6 kmh ESE 3.5 mph5.6 kmh 29.85 in1010.8 mb - 0.00 in0.0 mm 0.00 in0.0 mm
09:25 AM 63.9°F17.7°C 44.9°F7.2°C 50% 4.6 mph ESE7.4 kmh ESE 5.8 mph9.3 kmh 29.85 in1010.8 mb - 0.00 in0.0 mm 0.00 in0.0 mm
09:30 AM 64.3°F17.9°C 45.3°F7.4°C 50% 6.9 mph SE11.1 kmh SE 9.2 mph14.8 kmh 29.84 in1010.5 mb - 0.00 in0.0 mm 0.00 in0.0 mm
09:35 AM 64.8°F18.2°C 45.7°F7.6°C 50% 8.1 mph ESE13.0 kmh ESE 10.4 mph16.7 kmh 29.84 in1010.5 mb - 0.00 in0.0 mm 0.00 in0.0 mm
09:40 AM 65.3°F18.5°C 45.6°F7.6°C 49% 5.8 mph SE9.3 kmh SE 4.6 mph7.4 kmh 29.84 in1010.5 mb - 0.00 in0.0 mm 0.00 in0.0 mm
09:45 AM 65.8°F18.8°C 46.1°F7.8°C 49% 9.2 mph SSE14.8 kmh SSE 10.4 mph16.7 kmh 29.85 in1010.8 mb - 0.00 in0.0 mm 0.00 in0.0 mm
09:50 AM 66.0°F18.9°C 46.3°F7.9°C 49% 8.1 mph ESE13.0 kmh ESE 10.4 mph16.7 kmh 29.85 in1010.8 mb - 0.00 in0.0 mm 0.00 in0.0 mm
09:55 AM 66.4°F19.1°C 46.1°F7.8°C 48% 5.8 mph SE9.3 kmh SE 11.5 mph18.5 kmh 29.85 in1010.8 mb - 0.00 in0.0 mm 0.00 in0.0 mm
10:00 AM 66.9°F19.4°C 46.6°F8.1°C 48% 8.1 mph SSE13.0 kmh SSE 11.5 mph18.5 kmh 29.84 in1010.5 mb - 0.00 in0.0 mm 0.00 in0.0 mm
10:10 AM 67.6°F19.8°C 46.7°F8.2°C 47% 8.1 mph S13.0 kmh S 10.4 mph16.7 kmh 29.84 in1010.5 mb - 0.00 in0.0 mm 0.00 in0.0 mm
10:15 AM 68.0°F20.0°C 46.4°F8.0°C 46% 6.9 mph ESE11.1 kmh ESE 9.2 mph14.8 kmh 29.84 in1010.5 mb - 0.00 in0.0 mm 0.00 in0.0 mm
10:20 AM 68.4°F20.2°C 46.2°F7.9°C 45% 6.9 mph SE11.1 kmh SE 9.2 mph14.8 kmh 29.84 in1010.5 mb - 0.00 in0.0 mm 0.00 in0.0 mm
10:25 AM 68.7°F20.4°C 46.5°F8.1°C 45% 6.9 mph SE11.1 kmh SE 6.9 mph11.1 kmh 29.84 in1010.5 mb - 0.00 in0.0 mm 0.00 in0.0 mm
10:30 AM 68.7°F20.4°C 45.9°F7.7°C 44% 9.2 mph S14.8 kmh S 11.5 mph18.5 kmh 29.84 in1010.5 mb - 0.00 in0.0 mm 0.00 in0.0 mm
10:35 AM 69.1°F20.6°C 46.2°F7.9°C 44% 9.2 mph SSW14.8 kmh SSW 10.4 mph16.7 kmh 29.84 in1010.5 mb - 0.00 in0.0 mm 0.00 in0.0 mm
10:40 AM 69.4°F20.8°C 46.0°F7.8°C 43% 9.2 mph SSE14.8 kmh SSE 13.8 mph22.2 kmh 29.84 in1010.5 mb - 0.00 in0.0 mm 0.00 in0.0 mm
10:45 AM 70.0°F21.1°C 45.8°F7.7°C 42% 6.9 mph ESE11.1 kmh ESE 9.2 mph14.8 kmh 29.83 in1010.2 mb - 0.00 in0.0 mm 0.00 in0.0 mm
10:50 AM 70.2°F21.2°C 46.0°F7.8°C 42% 8.1 mph SE13.0 kmh SE 8.1 mph13.0 kmh 29.83 in1010.2 mb - 0.00 in0.0 mm 0.00 in0.0 mm
10:55 AM 70.5°F21.4°C 46.3°F7.9°C 42% 8.1 mph SSE13.0 kmh SSE 12.7 mph20.4 kmh 29.83 in1010.2 mb - 0.00 in0.0 mm 0.00 in0.0 mm
11:00 AM 70.5°F21.4°C 45.7°F7.6°C 41% 8.1 mph E13.0 kmh E 5.8 mph9.3 kmh 29.83 in1010.2 mb - 0.00 in0.0 mm 0.00 in0.0 mm
11:10 AM 72.0°F22.2°C 47.0°F8.3°C 41% 5.8 mph ESE9.3 kmh ESE 12.7 mph20.4 kmh 29.83 in1010.2 mb - 0.00 in0.0 mm 0.00 in0.0 mm
11:15 AM 71.8°F22.1°C 46.1°F7.8°C 40% 9.2 mph SSW14.8 kmh SSW 9.2 mph14.8 kmh 29.83 in1010.2 mb - 0.00 in0.0 mm 0.00 in0.0 mm
11:20 AM 72.1°F22.3°C 46.5°F8.1°C 40% 5.8 mph SSE9.3 kmh SSE 5.8 mph9.3 kmh 29.83 in1010.2 mb - 0.00 in0.0 mm 0.00 in0.0 mm
11:25 AM 72.5°F22.5°C 46.8°F8.2°C 40% 6.9 mph SE11.1 kmh SE 9.2 mph14.8 kmh 29.83 in1010.2 mb - 0.00 in0.0 mm 0.00 in0.0 mm
11:30 AM 72.2°F22.3°C 45.1°F7.3°C 38% 8.1 mph ESE13.0 kmh ESE 10.4 mph16.7 kmh 29.82 in1009.8 mb - 0.00 in0.0 mm 0.00 in0.0 mm
11:35 AM 72.5°F22.5°C 45.4°F7.4°C 38% 6.9 mph S11.1 kmh S 9.2 mph14.8 kmh 29.82 in1009.8 mb - 0.00 in0.0 mm 0.00 in0.0 mm
11:40 AM 73.0°F22.8°C 45.2°F7.3°C 37% 6.9 mph SSW11.1 kmh SSW 10.4 mph16.7 kmh 29.82 in1009.8 mb - 0.00 in0.0 mm 0.00 in0.0 mm
11:45 AM 73.0°F22.8°C 45.2°F7.3°C 37% 5.8 mph ENE9.3 kmh ENE 8.1 mph13.0 kmh 29.82 in1009.8 mb - 0.00 in0.0 mm 0.00 in0.0 mm
11:50 AM 73.6°F23.1°C 45.0°F7.2°C 36% 8.1 mph S13.0 kmh S 8.1 mph13.0 kmh 29.82 in1009.8 mb - 0.00 in0.0 mm 0.00 in0.0 mm
11:55 AM 73.6°F23.1°C 45.0°F7.2°C 36% 4.6 mph S7.4 kmh S 8.1 mph13.0 kmh 29.82 in1009.8 mb - 0.00 in0.0 mm 0.00 in0.0 mm
12:00 PM 73.9°F23.3°C 44.5°F6.9°C 35% 6.9 mph ESE11.1 kmh ESE 8.1 mph13.0 kmh 29.81 in1009.5 mb - 0.00 in0.0 mm 0.00 in0.0 mm
12:10 PM 74.1°F23.4°C 44.7°F7.1°C 35% 6.9 mph ESE11.1 kmh ESE 8.1 mph13.0 kmh 29.81 in1009.5 mb - 0.00 in0.0 mm 0.00 in0.0 mm
12:15 PM 73.9°F23.3°C 43.8°F6.6°C 34% 8.1 mph SE13.0 kmh SE 9.2 mph14.8 kmh 29.81 in1009.5 mb - 0.00 in0.0 mm 0.00 in0.0 mm
12:20 PM 74.2°F23.4°C 43.3°F6.3°C 33% 8.1 mph S13.0 kmh S 9.2 mph14.8 kmh 29.81 in1009.5 mb - 0.00 in0.0 mm 0.00 in0.0 mm
12:25 PM 74.3°F23.5°C 43.3°F6.3°C 33% 8.1 mph SE13.0 kmh SE 10.4 mph16.7 kmh 29.81 in1009.5 mb - 0.00 in0.0 mm 0.00 in0.0 mm
12:30 PM 74.5°F23.6°C 42.7°F5.9°C 32% 6.9 mph S11.1 kmh S 9.2 mph14.8 kmh 29.80 in1009.1 mb - 0.00 in0.0 mm 0.00 in0.0 mm
12:35 PM 74.3°F23.5°C 43.3°F6.3°C 33% 5.8 mph SE9.3 kmh SE 8.1 mph13.0 kmh 29.80 in1009.1 mb - 0.00 in0.0 mm 0.00 in0.0 mm
12:40 PM 74.5°F23.6°C 42.7°F5.9°C 32% 6.9 mph ESE11.1 kmh ESE 8.1 mph13.0 kmh 29.80 in1009.1 mb - 0.00 in0.0 mm 0.00 in0.0 mm
12:45 PM 74.6°F23.7°C 42.8°F6.0°C 32% 8.1 mph SE13.0 kmh SE 6.9 mph11.1 kmh 29.79 in1008.8 mb - 0.00 in0.0 mm 0.00 in0.0 mm
12:50 PM 74.7°F23.7°C 42.0°F5.6°C 31% 6.9 mph S11.1 kmh S 6.9 mph11.1 kmh 29.79 in1008.8 mb - 0.00 in0.0 mm 0.00 in0.0 mm
12:55 PM 75.1°F23.9°C 43.2°F6.2°C 32% 4.6 mph SE7.4 kmh SE 4.6 mph7.4 kmh 29.79 in1008.8 mb - 0.00 in0.0 mm 0.00 in0.0 mm
01:00 PM 75.4°F24.1°C 43.5°F6.4°C 32% 5.8 mph E9.3 kmh E 9.2 mph14.8 kmh 29.79 in1008.8 mb - 0.00 in0.0 mm 0.00 in0.0 mm
01:10 PM 75.4°F24.1°C 42.6°F5.9°C 31% 6.9 mph SE11.1 kmh SE 8.1 mph13.0 kmh 29.79 in1008.8 mb - 0.00 in0.0 mm 0.00 in0.0 mm
01:15 PM 75.6°F24.2°C 42.8°F6.0°C 31% 8.1 mph SE13.0 kmh SE 9.2 mph14.8 kmh 29.79 in1008.8 mb - 0.00 in0.0 mm 0.00 in0.0 mm
01:20 PM 75.1°F23.9°C 42.4°F5.8°C 31% 4.6 mph E7.4 kmh E 5.8 mph9.3 kmh 29.79 in1008.8 mb - 0.00 in0.0 mm 0.00 in0.0 mm
01:25 PM 75.2°F24.0°C 41.6°F5.3°C 30% 5.8 mph SE9.3 kmh SE 6.9 mph11.1 kmh 29.79 in1008.8 mb - 0.00 in0.0 mm 0.00 in0.0 mm
01:30 PM 75.2°F24.0°C 41.6°F5.3°C 30% 4.6 mph E7.4 kmh E 4.6 mph7.4 kmh 29.78 in1008.5 mb - 0.00 in0.0 mm 0.00 in0.0 mm
01:35 PM 75.2°F24.0°C 41.6°F5.3°C 30% 4.6 mph SE7.4 kmh SE 5.8 mph9.3 kmh 29.78 in1008.5 mb - 0.00 in0.0 mm 0.00 in0.0 mm
01:40 PM 75.2°F24.0°C 41.6°F5.3°C 30% 5.8 mph SE9.3 kmh SE 9.2 mph14.8 kmh 29.78 in1008.5 mb - 0.00 in0.0 mm 0.00 in0.0 mm
01:45 PM 75.2°F24.0°C 41.6°F5.3°C 30% 3.5 mph E5.6 kmh E 5.8 mph9.3 kmh 29.78 in1008.5 mb - 0.00 in0.0 mm 0.00 in0.0 mm
01:50 PM 75.4°F24.1°C 41.8°F5.4°C 30% 5.8 mph SW9.3 kmh SW 4.6 mph7.4 kmh 29.78 in1008.5 mb - 0.00 in0.0 mm 0.00 in0.0 mm
01:55 PM 75.4°F24.1°C 41.8°F5.4°C 30% 4.6 mph ENE7.4 kmh ENE 5.8 mph9.3 kmh 29.78 in1008.5 mb - 0.00 in0.0 mm 0.00 in0.0 mm
02:00 PM 75.4°F24.1°C 40.9°F4.9°C 29% 4.6 mph ESE7.4 kmh ESE 5.8 mph9.3 kmh 29.78 in1008.5 mb - 0.00 in0.0 mm 0.00 in0.0 mm
02:10 PM 75.6°F24.2°C 41.1°F5.1°C 29% 3.5 mph SSE5.6 kmh SSE 5.8 mph9.3 kmh 29.78 in1008.5 mb - 0.00 in0.0 mm 0.00 in0.0 mm
02:15 PM 75.6°F24.2°C 41.9°F5.5°C 30% 2.3 mph ESE3.7 kmh ESE 5.8 mph9.3 kmh 29.78 in1008.5 mb - 0.00 in0.0 mm 0.00 in0.0 mm
02:20 PM 75.0°F23.9°C 40.6°F4.8°C 29% 4.6 mph SSE7.4 kmh SSE 8.1 mph13.0 kmh 29.78 in1008.5 mb - 0.00 in0.0 mm 0.00 in0.0 mm
02:25 PM 75.1°F23.9°C 40.6°F4.8°C 29% 3.5 mph ESE5.6 kmh ESE 3.5 mph5.6 kmh 29.78 in1008.5 mb - 0.00 in0.0 mm 0.00 in0.0 mm
02:30 PM 75.2°F24.0°C 40.7°F4.8°C 29% 3.5 mph SE5.6 kmh SE 4.6 mph7.4 kmh 29.78 in1008.5 mb - 0.00 in0.0 mm 0.00 in0.0 mm
02:35 PM 75.2°F24.0°C 40.7°F4.8°C 29% 4.6 mph SE7.4 kmh SE 4.6 mph7.4 kmh 29.78 in1008.5 mb - 0.00 in0.0 mm 0.00 in0.0 mm
02:40 PM 75.2°F24.0°C 40.7°F4.8°C 29% 3.5 mph ENE5.6 kmh ENE 4.6 mph7.4 kmh 29.78 in1008.5 mb - 0.00 in0.0 mm 0.00 in0.0 mm
02:45 PM 75.2°F24.0°C 40.7°F4.8°C 29% 3.5 mph ESE5.6 kmh ESE 3.5 mph5.6 kmh 29.77 in1008.1 mb - 0.00 in0.0 mm 0.00 in0.0 mm
02:50 PM 75.2°F24.0°C 39.8°F4.3°C 28% 2.3 mph E3.7 kmh E 3.5 mph5.6 kmh 29.77 in1008.1 mb - 0.00 in0.0 mm 0.00 in0.0 mm
02:55 PM 75.2°F24.0°C 39.8°F4.3°C 28% 4.6 mph ESE7.4 kmh ESE 5.8 mph9.3 kmh 29.77 in1008.1 mb - 0.00 in0.0 mm 0.00 in0.0 mm
03:00 PM 74.7°F23.7°C 39.4°F4.1°C 28% 3.5 mph ESE5.6 kmh ESE 3.5 mph5.6 kmh 29.77 in1008.1 mb - 0.00 in0.0 mm 0.00 in0.0 mm
03:10 PM 74.5°F23.6°C 40.1°F4.5°C 29% 2.3 mph ENE3.7 kmh ENE 2.3 mph3.7 kmh 29.77 in1008.1 mb - 0.00 in0.0 mm 0.00 in0.0 mm
03:15 PM 74.3°F23.5°C 39.1°F3.9°C 28% 3.5 mph ESE5.6 kmh ESE 3.5 mph5.6 kmh 29.77 in1008.1 mb - 0.00 in0.0 mm 0.00 in0.0 mm
03:20 PM 74.3°F23.5°C 39.1°F3.9°C 28% 2.3 mph E3.7 kmh E 2.3 mph3.7 kmh 29.77 in1008.1 mb - 0.00 in0.0 mm 0.00 in0.0 mm
03:25 PM 74.1°F23.4°C 39.8°F4.3°C 29% 3.5 mph E5.6 kmh E 3.5 mph5.6 kmh 29.77 in1008.1 mb - 0.00 in0.0 mm 0.00 in0.0 mm
03:30 PM 73.9°F23.3°C 38.8°F3.8°C 28% 3.5 mph E5.6 kmh E 4.6 mph7.4 kmh 29.77 in1008.1 mb - 0.00 in0.0 mm 0.00 in0.0 mm
03:35 PM 73.9°F23.3°C 39.7°F4.3°C 29% 2.3 mph E3.7 kmh E 3.5 mph5.6 kmh 29.77 in1008.1 mb - 0.00 in0.0 mm 0.00 in0.0 mm
03:40 PM 73.8°F23.2°C 39.5°F4.2°C 29% 2.3 mph ENE3.7 kmh ENE 3.5 mph5.6 kmh 29.77 in1008.1 mb - 0.00 in0.0 mm 0.00 in0.0 mm
03:45 PM 73.5°F23.1°C 39.2°F4.0°C 29% 3.5 mph NE5.6 kmh NE 3.5 mph5.6 kmh 29.77 in1008.1 mb - 0.00 in0.0 mm 0.00 in0.0 mm
03:50 PM 73.0°F22.8°C 39.8°F4.3°C 30% 2.3 mph ENE3.7 kmh ENE 3.5 mph5.6 kmh 29.77 in1008.1 mb - 0.00 in0.0 mm 0.00 in0.0 mm
03:55 PM 72.8°F22.7°C 39.6°F4.2°C 30% 3.5 mph NNE5.6 kmh NNE 3.5 mph5.6 kmh 29.77 in1008.1 mb - 0.00 in0.0 mm 0.00 in0.0 mm
04:00 PM 72.5°F22.5°C 39.3°F4.1°C 30% 2.3 mph ENE3.7 kmh ENE 2.3 mph3.7 kmh 29.76 in1007.8 mb - 0.00 in0.0 mm 0.00 in0.0 mm
04:10 PM 71.8°F22.1°C 38.7°F3.7°C 30% 1.2 mph NE1.9 kmh NE 2.3 mph3.7 kmh 29.76 in1007.8 mb - 0.00 in0.0 mm 0.00 in0.0 mm
04:15 PM 71.3°F21.8°C 38.2°F3.4°C 30% 1.2 mph NE1.9 kmh NE 2.3 mph3.7 kmh 29.76 in1007.8 mb - 0.00 in0.0 mm 0.00 in0.0 mm
04:20 PM 70.8°F21.6°C 37.8°F3.2°C 30% 1.2 mph NE1.9 kmh NE 1.2 mph1.9 kmh 29.76 in1007.8 mb - 0.00 in0.0 mm 0.00 in0.0 mm
04:25 PM 70.5°F21.4°C 38.4°F3.6°C 31% 1.2 mph NE1.9 kmh NE 2.3 mph3.7 kmh 29.76 in1007.8 mb - 0.00 in0.0 mm 0.00 in0.0 mm
04:30 PM 69.6°F20.9°C 37.6°F3.1°C 31% 1.2 mph NE1.9 kmh NE 2.3 mph3.7 kmh 29.76 in1007.8 mb - 0.00 in0.0 mm 0.00 in0.0 mm
04:35 PM 69.1°F20.6°C 38.0°F3.3°C 32% 2.3 mph ENE3.7 kmh ENE 2.3 mph3.7 kmh 29.76 in1007.8 mb - 0.00 in0.0 mm 0.00 in0.0 mm
04:40 PM 68.6°F20.3°C 37.5°F3.1°C 32% 1.2 mph NE1.9 kmh NE 2.3 mph3.7 kmh 29.76 in1007.8 mb - 0.00 in0.0 mm 0.00 in0.0 mm
04:45 PM 67.7°F19.8°C 37.6°F3.1°C 33% 1.2 mph ENE1.9 kmh ENE 2.3 mph3.7 kmh 29.77 in1008.1 mb - 0.00 in0.0 mm 0.00 in0.0 mm
04:50 PM 66.3°F19.1°C 36.3°F2.4°C 33% 1.2 mph ENE1.9 kmh ENE 1.2 mph1.9 kmh 29.77 in1008.1 mb - 0.00 in0.0 mm 0.00 in0.0 mm
04:55 PM 65.3°F18.5°C 36.2°F2.3°C 34% 1.2 mph ENE1.9 kmh ENE 2.3 mph3.7 kmh 29.77 in1008.1 mb - 0.00 in0.0 mm 0.00 in0.0 mm
05:00 PM 64.9°F18.3°C 35.9°F2.2°C 34% 1.2 mph ENE1.9 kmh ENE 2.3 mph3.7 kmh 29.76 in1007.8 mb - 0.00 in0.0 mm 0.00 in0.0 mm
05:10 PM 62.8°F17.1°C 35.4°F1.9°C 36% 1.2 mph NE1.9 kmh NE 2.3 mph3.7 kmh 29.76 in1007.8 mb - 0.00 in0.0 mm 0.00 in0.0 mm
05:15 PM 61.8°F16.6°C 35.3°F1.8°C 37% 1.2 mph NE1.9 kmh NE 1.2 mph1.9 kmh 29.76 in1007.8 mb - 0.00 in0.0 mm 0.00 in0.0 mm
05:20 PM 60.9°F16.1°C 34.4°F1.3°C 37% 1.2 mph NE1.9 kmh NE 2.3 mph3.7 kmh 29.76 in1007.8 mb - 0.00 in0.0 mm 0.00 in0.0 mm
05:25 PM 60.1°F15.6°C 34.4°F1.3°C 38% 1.2 mph NE1.9 kmh NE 1.2 mph1.9 kmh 29.76 in1007.8 mb - 0.00 in0.0 mm 0.00 in0.0 mm
05:30 PM 59.9°F15.5°C 34.9°F1.6°C 39% Calm Calm 1.2 mph1.9 kmh 29.76 in1007.8 mb - 0.00 in0.0 mm 0.00 in0.0 mm
05:35 PM 59.2°F15.1°C 35.5°F1.9°C 41% 1.2 mph NE1.9 kmh NE 1.2 mph1.9 kmh 29.76 in1007.8 mb - 0.00 in0.0 mm 0.00 in0.0 mm
05:40 PM 58.3°F14.6°C 35.3°F1.8°C 42% 1.2 mph NNE1.9 kmh NNE 2.3 mph3.7 kmh 29.76 in1007.8 mb - 0.00 in0.0 mm 0.00 in0.0 mm
05:45 PM 57.6°F14.2°C 35.9°F2.2°C 44% 1.2 mph NNE1.9 kmh NNE 2.3 mph3.7 kmh 29.76 in1007.8 mb - 0.00 in0.0 mm 0.00 in0.0 mm
05:50 PM 57.2°F14.0°C 36.0°F2.2°C 45% 1.2 mph NNE1.9 kmh NNE 1.2 mph1.9 kmh 29.76 in1007.8 mb - 0.00 in0.0 mm 0.00 in0.0 mm
05:55 PM 56.7°F13.7°C 35.0°F1.7°C 44% 1.2 mph NNE1.9 kmh NNE 1.2 mph1.9 kmh 29.76 in1007.8 mb - 0.00 in0.0 mm 0.00 in0.0 mm
06:00 PM 55.9°F13.3°C 34.9°F1.6°C 45% 1.2 mph NNE1.9 kmh NNE 1.2 mph1.9 kmh 29.76 in1007.8 mb - 0.00 in0.0 mm 0.00 in0.0 mm
06:10 PM 55.1°F12.8°C 35.2°F1.8°C 47% 2.3 mph NNE3.7 kmh NNE 2.3 mph3.7 kmh 29.76 in1007.8 mb - 0.00 in0.0 mm 0.00 in0.0 mm
06:15 PM 54.8°F12.7°C 35.4°F1.9°C 48% 2.3 mph NNE3.7 kmh NNE 2.3 mph3.7 kmh 29.77 in1008.1 mb - 0.00 in0.0 mm 0.00 in0.0 mm
06:20 PM 54.5°F12.5°C 35.2°F1.8°C 48% 2.3 mph NNE3.7 kmh NNE 2.3 mph3.7 kmh 29.77 in1008.1 mb - 0.00 in0.0 mm 0.00 in0.0 mm
06:25 PM 54.1°F12.3°C 34.9°F1.6°C 48% 1.2 mph NNE1.9 kmh NNE 1.2 mph1.9 kmh 29.77 in1008.1 mb - 0.00 in0.0 mm 0.00 in0.0 mm
06:30 PM 53.8°F12.1°C 34.5°F1.4°C 48% 1.2 mph NNE1.9 kmh NNE 2.3 mph3.7 kmh 29.77 in1008.1 mb - 0.00 in0.0 mm 0.00 in0.0 mm
06:35 PM 53.2°F11.8°C 35.1°F1.7°C 50% 1.2 mph NNE1.9 kmh NNE 2.3 mph3.7 kmh 29.77 in1008.1 mb - 0.00 in0.0 mm 0.00 in0.0 mm
06:40 PM 53.1°F11.7°C 35.4°F1.9°C 51% 1.2 mph NNE1.9 kmh NNE 1.2 mph1.9 kmh 29.77 in1008.1 mb - 0.00 in0.0 mm 0.00 in0.0 mm
06:45 PM 52.7°F11.5°C 35.6°F2.0°C 52% 1.2 mph NNE1.9 kmh NNE 2.3 mph3.7 kmh 29.77 in1008.1 mb - 0.00 in0.0 mm 0.00 in0.0 mm
06:50 PM 52.3°F11.3°C 35.2°F1.8°C 52% 1.2 mph NNE1.9 kmh NNE 1.2 mph1.9 kmh 29.77 in1008.1 mb - 0.00 in0.0 mm 0.00 in0.0 mm
06:55 PM 52.2°F11.2°C 35.1°F1.7°C 52% 1.2 mph NNE1.9 kmh NNE 2.3 mph3.7 kmh 29.77 in1008.1 mb - 0.00 in0.0 mm 0.00 in0.0 mm
07:00 PM 51.8°F11.0°C 34.7°F1.5°C 52% 1.2 mph NNE1.9 kmh NNE 2.3 mph3.7 kmh 29.76 in1007.8 mb - 0.00 in0.0 mm 0.00 in0.0 mm
07:10 PM 51.1°F10.6°C 34.5°F1.4°C 53% 1.2 mph NNE1.9 kmh NNE 2.3 mph3.7 kmh 29.76 in1007.8 mb - 0.00 in0.0 mm 0.00 in0.0 mm
07:15 PM 50.9°F10.5°C 34.8°F1.6°C 54% 2.3 mph NNE3.7 kmh NNE 2.3 mph3.7 kmh 29.76 in1007.8 mb - 0.00 in0.0 mm 0.00 in0.0 mm
07:20 PM 50.7°F10.4°C 34.7°F1.5°C 54% 2.3 mph NNE3.7 kmh NNE 2.3 mph3.7 kmh 29.76 in1007.8 mb - 0.00 in0.0 mm 0.00 in0.0 mm
07:25 PM 50.5°F10.3°C 35.0°F1.7°C 55% 2.3 mph NNE3.7 kmh NNE 3.5 mph5.6 kmh 29.76 in1007.8 mb - 0.00 in0.0 mm 0.00 in0.0 mm
07:30 PM 50.4°F10.2°C 34.8°F1.6°C 55% 1.2 mph NNE1.9 kmh NNE 2.3 mph3.7 kmh 29.77 in1008.1 mb - 0.00 in0.0 mm 0.00 in0.0 mm
07:35 PM 50.0°F10.0°C 34.5°F1.4°C 55% 1.2 mph NNE1.9 kmh NNE 2.3 mph3.7 kmh 29.77 in1008.1 mb - 0.00 in0.0 mm 0.00 in0.0 mm
07:40 PM 49.9°F9.9°C 34.3°F1.3°C 55% 2.3 mph NNE3.7 kmh NNE 2.3 mph3.7 kmh 29.77 in1008.1 mb - 0.00 in0.0 mm 0.00 in0.0 mm
07:45 PM 49.6°F9.8°C 34.6°F1.4°C 56% 2.3 mph NNE3.7 kmh NNE 2.3 mph3.7 kmh 29.77 in1008.1 mb - 0.00 in0.0 mm 0.00 in0.0 mm
07:50 PM 49.6°F9.8°C 34.5°F1.4°C 56% 2.3 mph NNE3.7 kmh NNE 3.5 mph5.6 kmh 29.77 in1008.1 mb - 0.00 in0.0 mm 0.00 in0.0 mm
07:55 PM 49.5°F9.7°C 34.4°F1.3°C 56% 2.3 mph NNE3.7 kmh NNE 2.3 mph3.7 kmh 29.77 in1008.1 mb - 0.00 in0.0 mm 0.00 in0.0 mm
08:00 PM 49.3°F9.6°C 34.7°F1.5°C 57% 2.3 mph N3.7 kmh N 2.3 mph3.7 kmh 29.77 in1008.1 mb - 0.00 in0.0 mm 0.00 in0.0 mm
08:10 PM 49.3°F9.6°C 36.0°F2.2°C 60% 2.3 mph N3.7 kmh N 3.5 mph5.6 kmh 29.77 in1008.1 mb - 0.00 in0.0 mm 0.00 in0.0 mm
08:15 PM 49.3°F9.6°C 36.8°F2.7°C 62% 2.3 mph NNW3.7 kmh NNW 3.5 mph5.6 kmh 29.77 in1008.1 mb - 0.00 in0.0 mm 0.00 in0.0 mm
08:20 PM 49.1°F9.5°C 35.8°F2.1°C 60% 2.3 mph NNW3.7 kmh NNW 3.5 mph5.6 kmh 29.77 in1008.1 mb - 0.00 in0.0 mm 0.00 in0.0 mm
08:25 PM 48.9°F9.4°C 35.2°F1.8°C 59% 2.3 mph N3.7 kmh N 3.5 mph5.6 kmh 29.77 in1008.1 mb - 0.00 in0.0 mm 0.00 in0.0 mm
08:30 PM 48.9°F9.4°C 35.2°F1.8°C 59% 2.3 mph NNE3.7 kmh NNE 3.5 mph5.6 kmh 29.78 in1008.5 mb - 0.00 in0.0 mm 0.00 in0.0 mm
08:35 PM 49.3°F9.6°C 35.1°F1.7°C 58% 3.5 mph NNE5.6 kmh NNE 3.5 mph5.6 kmh 29.78 in1008.5 mb - 0.00 in0.0 mm 0.00 in0.0 mm
08:40 PM 49.3°F9.6°C 35.1°F1.7°C 58% 2.3 mph NNE3.7 kmh NNE 2.3 mph3.7 kmh 29.78 in1008.5 mb - 0.00 in0.0 mm 0.00 in0.0 mm
08:45 PM 49.0°F9.4°C 34.9°F1.6°C 58% 2.3 mph NE3.7 kmh NE 3.5 mph5.6 kmh 29.78 in1008.5 mb - 0.00 in0.0 mm 0.00 in0.0 mm
08:50 PM 48.9°F9.4°C 34.8°F1.6°C 58% 2.3 mph NE3.7 kmh NE 2.3 mph3.7 kmh 29.78 in1008.5 mb - 0.00 in0.0 mm 0.00 in0.0 mm
08:55 PM 48.9°F9.4°C 34.8°F1.6°C 58% 2.3 mph NNE3.7 kmh NNE 2.3 mph3.7 kmh 29.78 in1008.5 mb - 0.00 in0.0 mm 0.00 in0.0 mm
09:00 PM 48.7°F9.3°C 35.0°F1.7°C 59% 2.3 mph NNE3.7 kmh NNE 3.5 mph5.6 kmh 29.77 in1008.1 mb - 0.00 in0.0 mm 0.00 in0.0 mm
09:10 PM 48.7°F9.3°C 35.0°F1.7°C 59% 1.2 mph NNE1.9 kmh NNE 2.3 mph3.7 kmh 29.77 in1008.1 mb - 0.00 in0.0 mm 0.00 in0.0 mm
09:15 PM 48.8°F9.3°C 35.1°F1.7°C 59% 2.3 mph NNE3.7 kmh NNE 2.3 mph3.7 kmh 29.77 in1008.1 mb - 0.00 in0.0 mm 0.00 in0.0 mm
09:20 PM 48.7°F9.3°C 35.0°F1.7°C 59% 2.3 mph NNE3.7 kmh NNE 2.3 mph3.7 kmh 29.77 in1008.1 mb - 0.00 in0.0 mm 0.00 in0.0 mm
09:25 PM 48.9°F9.4°C 35.2°F1.8°C 59% 2.3 mph NNE3.7 kmh NNE 2.3 mph3.7 kmh 29.77 in1008.1 mb - 0.00 in0.0 mm 0.00 in0.0 mm
09:30 PM 48.9°F9.4°C 35.6°F2.0°C 60% 2.3 mph NNE3.7 kmh NNE 2.3 mph3.7 kmh 29.77 in1008.1 mb - 0.00 in0.0 mm 0.00 in0.0 mm
09:35 PM 48.7°F9.3°C 35.5°F1.9°C 60% 1.2 mph NNE1.9 kmh NNE 2.3 mph3.7 kmh 29.77 in1008.1 mb - 0.00 in0.0 mm 0.00 in0.0 mm
09:40 PM 48.6°F9.2°C 35.4°F1.9°C 60% 1.2 mph NNE1.9 kmh NNE 2.3 mph3.7 kmh 29.77 in1008.1 mb - 0.00 in0.0 mm 0.00 in0.0 mm
09:45 PM 48.6°F9.2°C 35.3°F1.8°C 60% 2.3 mph NNE3.7 kmh NNE 2.3 mph3.7 kmh 29.77 in1008.1 mb - 0.00 in0.0 mm 0.00 in0.0 mm
09:50 PM 48.7°F9.3°C 35.5°F1.9°C 60% 2.3 mph NNE3.7 kmh NNE 2.3 mph3.7 kmh 29.77 in1008.1 mb - 0.00 in0.0 mm 0.00 in0.0 mm
09:55 PM 48.7°F9.3°C 35.5°F1.9°C 60% 1.2 mph NNE1.9 kmh NNE 1.2 mph1.9 kmh 29.77 in1008.1 mb - 0.00 in0.0 mm 0.00 in0.0 mm
10:00 PM 48.7°F9.3°C 35.5°F1.9°C 60% 2.3 mph NE3.7 kmh NE 3.5 mph5.6 kmh 29.77 in1008.1 mb - 0.00 in0.0 mm 0.00 in0.0 mm
10:10 PM 48.6°F9.2°C 35.7°F2.1°C 61% 2.3 mph NNE3.7 kmh NNE 1.2 mph1.9 kmh 29.77 in1008.1 mb - 0.00 in0.0 mm 0.00 in0.0 mm
10:15 PM 48.6°F9.2°C 35.7°F2.1°C 61% 2.3 mph NNE3.7 kmh NNE 3.5 mph5.6 kmh 29.77 in1008.1 mb - 0.00 in0.0 mm 0.00 in0.0 mm
10:20 PM 48.4°F9.1°C 35.5°F1.9°C 61% 1.2 mph NNE1.9 kmh NNE 2.3 mph3.7 kmh 29.77 in1008.1 mb - 0.00 in0.0 mm 0.00 in0.0 mm
10:25 PM 48.2°F9.0°C 35.4°F1.9°C 61% 1.2 mph NNE1.9 kmh NNE 1.2 mph1.9 kmh 29.77 in1008.1 mb - 0.00 in0.0 mm 0.00 in0.0 mm
10:30 PM 48.2°F9.0°C 35.4°F1.9°C 61% 2.3 mph NNE3.7 kmh NNE 2.3 mph3.7 kmh 29.77 in1008.1 mb - 0.00 in0.0 mm 0.00 in0.0 mm
10:35 PM 47.9°F8.8°C 35.1°F1.7°C 61% 1.2 mph NNE1.9 kmh NNE 2.3 mph3.7 kmh 29.77 in1008.1 mb - 0.00 in0.0 mm 0.00 in0.0 mm
10:40 PM 47.8°F8.8°C 35.4°F1.9°C 62% 1.2 mph NNE1.9 kmh NNE 2.3 mph3.7 kmh 29.77 in1008.1 mb - 0.00 in0.0 mm 0.00 in0.0 mm
10:45 PM 47.7°F8.7°C 35.3°F1.8°C 62% 1.2 mph NNE1.9 kmh NNE 2.3 mph3.7 kmh 29.77 in1008.1 mb - 0.00 in0.0 mm 0.00 in0.0 mm
10:50 PM 47.5°F8.6°C 35.1°F1.7°C 62% 2.3 mph NE3.7 kmh NE 2.3 mph3.7 kmh 29.77 in1008.1 mb - 0.00 in0.0 mm 0.00 in0.0 mm
10:55 PM 47.3°F8.5°C 34.9°F1.6°C 62% 1.2 mph NE1.9 kmh NE 2.3 mph3.7 kmh 29.77 in1008.1 mb - 0.00 in0.0 mm 0.00 in0.0 mm
11:00 PM 47.3°F8.5°C 34.9°F1.6°C 62% Calm Calm -- 29.77 in1008.1 mb - 0.00 in0.0 mm 0.00 in0.0 mm
11:10 PM 46.9°F8.3°C 34.6°F1.4°C 62% 1.2 mph NE1.9 kmh NE 2.3 mph3.7 kmh 29.77 in1008.1 mb - 0.00 in0.0 mm 0.00 in0.0 mm
11:15 PM 46.8°F8.2°C 34.8°F1.6°C 63% 1.2 mph NE1.9 kmh NE 2.3 mph3.7 kmh 29.77 in1008.1 mb - 0.00 in0.0 mm 0.00 in0.0 mm
11:20 PM 46.6°F8.1°C 34.7°F1.5°C 63% 1.2 mph NE1.9 kmh NE 1.2 mph1.9 kmh 29.77 in1008.1 mb - 0.00 in0.0 mm 0.00 in0.0 mm
11:25 PM 46.4°F8.0°C 34.5°F1.4°C 63% 1.2 mph NE1.9 kmh NE 1.2 mph1.9 kmh 29.77 in1008.1 mb - 0.00 in0.0 mm 0.00 in0.0 mm
11:30 PM 46.4°F8.0°C 34.9°F1.6°C 64% 1.2 mph NNE1.9 kmh NNE 2.3 mph3.7 kmh 29.77 in1008.1 mb - 0.00 in0.0 mm 0.00 in0.0 mm
11:35 PM 46.6°F8.1°C 35.4°F1.9°C 65% 1.2 mph N1.9 kmh N 2.3 mph3.7 kmh 29.77 in1008.1 mb - 0.00 in0.0 mm 0.00 in0.0 mm
11:40 PM 46.4°F8.0°C 35.3°F1.8°C 65% 1.2 mph N1.9 kmh N 2.3 mph3.7 kmh 29.77 in1008.1 mb - 0.00 in0.0 mm 0.00 in0.0 mm
11:45 PM 46.4°F8.0°C 35.3°F1.8°C 65% 1.2 mph N1.9 kmh N 1.2 mph1.9 kmh 29.77 in1008.1 mb - 0.00 in0.0 mm 0.00 in0.0 mm
11:50 PM 46.2°F7.9°C 35.1°F1.7°C 65% Calm Calm -- 29.77 in1008.1 mb - 0.00 in0.0 mm 0.00 in0.0 mm
11:55 PM 46.0°F7.8°C 34.9°F1.6°C 65% Calm Calm -- 29.77 in1008.1 mb - 0.00 in0.0 mm 0.00 in0.0 mm